sensor_id;sensor_type;location;lat;lon;timestamp;temperature;humidity
5647;DHT22;2845;48.626;9.362;2023-12-14T00:00:01;7.50;99.90
5647;DHT22;2845;48.626;9.362;2023-12-14T00:02:35;5.70;99.90
5647;DHT22;2845;48.626;9.362;2023-12-14T00:05:10;5.60;99.90
5647;DHT22;2845;48.626;9.362;2023-12-14T00:07:44;5.60;99.90
5647;DHT22;2845;48.626;9.362;2023-12-14T00:10:20;5.50;99.90
5647;DHT22;2845;48.626;9.362;2023-12-14T00:12:55;5.60;99.90
5647;DHT22;2845;48.626;9.362;2023-12-14T00:15:29;6.10;99.90
5647;DHT22;2845;48.626;9.362;2023-12-14T00:20:39;5.60;99.90
5647;DHT22;2845;48.626;9.362;2023-12-14T00:23:13;5.60;99.90
5647;DHT22;2845;48.626;9.362;2023-12-14T00:25:49;5.60;99.90
5647;DHT22;2845;48.626;9.362;2023-12-14T00:28:23;5.60;99.90
5647;DHT22;2845;48.626;9.362;2023-12-14T00:31:03;5.60;99.90
5647;DHT22;2845;48.626;9.362;2023-12-14T00:33:38;5.60;99.90
5647;DHT22;2845;48.626;9.362;2023-12-14T00:36:17;5.60;99.90
5647;DHT22;2845;48.626;9.362;2023-12-14T00:38:52;5.60;99.90
5647;DHT22;2845;48.626;9.362;2023-12-14T00:41:28;5.60;99.90
5647;DHT22;2845;48.626;9.362;2023-12-14T00:44:03;5.60;99.90
5647;DHT22;2845;48.626;9.362;2023-12-14T00:46:37;5.60;99.90
5647;DHT22;2845;48.626;9.362;2023-12-14T00:49:14;5.60;99.90
5647;DHT22;2845;48.626;9.362;2023-12-14T00:51:50;5.60;99.90
5647;DHT22;2845;48.626;9.362;2023-12-14T00:54:25;5.70;99.90
5647;DHT22;2845;48.626;9.362;2023-12-14T00:57:00;5.60;99.90
5647;DHT22;2845;48.626;9.362;2023-12-14T00:59:34;5.60;99.90
5647;DHT22;2845;48.626;9.362;2023-12-14T01:02:09;5.60;99.90
5647;DHT22;2845;48.626;9.362;2023-12-14T01:04:43;5.60;99.90
5647;DHT22;2845;48.626;9.362;2023-12-14T01:07:17;5.60;99.90
5647;DHT22;2845;48.626;9.362;2023-12-14T01:09:52;5.60;99.90
5647;DHT22;2845;48.626;9.362;2023-12-14T01:12:27;5.60;99.90
5647;DHT22;2845;48.626;9.362;2023-12-14T01:15:01;5.60;99.90
5647;DHT22;2845;48.626;9.362;2023-12-14T01:17:36;5.60;99.90
5647;DHT22;2845;48.626;9.362;2023-12-14T01:20:11;6.90;99.90
5647;DHT22;2845;48.626;9.362;2023-12-14T01:22:45;5.60;99.90
5647;DHT22;2845;48.626;9.362;2023-12-14T01:25:22;5.60;99.90
5647;DHT22;2845;48.626;9.362;2023-12-14T01:27:59;5.60;99.90
5647;DHT22;2845;48.626;9.362;2023-12-14T01:30:33;5.50;99.90
5647;DHT22;2845;48.626;9.362;2023-12-14T01:33:08;6.80;99.90
5647;DHT22;2845;48.626;9.362;2023-12-14T01:35:42;5.50;99.90
5647;DHT22;2845;48.626;9.362;2023-12-14T01:38:16;5.50;99.90
5647;DHT22;2845;48.626;9.362;2023-12-14T01:40:50;5.50;99.90
5647;DHT22;2845;48.626;9.362;2023-12-14T01:43:26;5.50;99.90
5647;DHT22;2845;48.626;9.362;2023-12-14T01:46:01;5.40;99.90
5647;DHT22;2845;48.626;9.362;2023-12-14T01:48:35;5.00;99.90
5647;DHT22;2845;48.626;9.362;2023-12-14T01:51:09;5.20;99.90
5647;DHT22;2845;48.626;9.362;2023-12-14T01:53:43;5.20;99.90
5647;DHT22;2845;48.626;9.362;2023-12-14T01:56:18;5.20;99.90
5647;DHT22;2845;48.626;9.362;2023-12-14T01:58:53;5.10;99.90
5647;DHT22;2845;48.626;9.362;2023-12-14T02:01:33;5.00;99.90
5647;DHT22;2845;48.626;9.362;2023-12-14T02:04:12;5.00;99.90
5647;DHT22;2845;48.626;9.362;2023-12-14T02:06:47;5.00;99.90
5647;DHT22;2845;48.626;9.362;2023-12-14T02:09:22;5.00;99.90
5647;DHT22;2845;48.626;9.362;2023-12-14T02:11:57;4.90;99.90
5647;DHT22;2845;48.626;9.362;2023-12-14T02:14:33;6.00;99.90
5647;DHT22;2845;48.626;9.362;2023-12-14T02:17:07;4.90;99.90
5647;DHT22;2845;48.626;9.362;2023-12-14T02:19:42;5.40;99.90
5647;DHT22;2845;48.626;9.362;2023-12-14T02:22:16;4.90;99.90
5647;DHT22;2845;48.626;9.362;2023-12-14T02:24:52;4.80;99.90
5647;DHT22;2845;48.626;9.362;2023-12-14T02:27:26;4.90;99.90
5647;DHT22;2845;48.626;9.362;2023-12-14T02:30:00;4.90;99.90
5647;DHT22;2845;48.626;9.362;2023-12-14T02:32:34;4.90;99.90
5647;DHT22;2845;48.626;9.362;2023-12-14T02:35:09;3.50;99.90
5647;DHT22;2845;48.626;9.362;2023-12-14T02:37:44;4.90;99.90
5647;DHT22;2845;48.626;9.362;2023-12-14T02:40:20;4.90;99.90
5647;DHT22;2845;48.626;9.362;2023-12-14T02:42:57;4.80;99.90
5647;DHT22;2845;48.626;9.362;2023-12-14T02:45:31;4.80;99.90
5647;DHT22;2845;48.626;9.362;2023-12-14T02:48:05;4.80;99.90
5647;DHT22;2845;48.626;9.362;2023-12-14T02:50:39;5.10;99.90
5647;DHT22;2845;48.626;9.362;2023-12-14T02:53:14;4.80;99.90
5647;DHT22;2845;48.626;9.362;2023-12-14T02:55:50;4.80;99.90
5647;DHT22;2845;48.626;9.362;2023-12-14T02:58:24;4.90;99.90
5647;DHT22;2845;48.626;9.362;2023-12-14T03:00:58;4.90;99.90
5647;DHT22;2845;48.626;9.362;2023-12-14T03:03:33;4.90;99.90
5647;DHT22;2845;48.626;9.362;2023-12-14T03:06:07;4.90;99.90
5647;DHT22;2845;48.626;9.362;2023-12-14T03:08:41;4.90;99.90
5647;DHT22;2845;48.626;9.362;2023-12-14T03:11:23;6.50;99.90
5647;DHT22;2845;48.626;9.362;2023-12-14T03:13:58;5.00;99.90
5647;DHT22;2845;48.626;9.362;2023-12-14T03:16:32;5.00;99.90
5647;DHT22;2845;48.626;9.362;2023-12-14T03:19:08;4.90;99.90
5647;DHT22;2845;48.626;9.362;2023-12-14T03:21:42;4.90;99.90
5647;DHT22;2845;48.626;9.362;2023-12-14T03:24:16;4.90;99.90
5647;DHT22;2845;48.626;9.362;2023-12-14T03:26:52;7.80;99.90
5647;DHT22;2845;48.626;9.362;2023-12-14T03:29:27;5.00;99.90
5647;DHT22;2845;48.626;9.362;2023-12-14T03:32:01;5.00;99.90
5647;DHT22;2845;48.626;9.362;2023-12-14T03:34:35;5.10;99.90
5647;DHT22;2845;48.626;9.362;2023-12-14T03:37:10;5.10;99.90
5647;DHT22;2845;48.626;9.362;2023-12-14T03:39:44;5.10;99.90
5647;DHT22;2845;48.626;9.362;2023-12-14T03:42:19;5.20;99.90
5647;DHT22;2845;48.626;9.362;2023-12-14T03:44:57;5.20;99.90
5647;DHT22;2845;48.626;9.362;2023-12-14T03:47:31;6.40;99.90
5647;DHT22;2845;48.626;9.362;2023-12-14T03:50:07;5.20;99.90
5647;DHT22;2845;48.626;9.362;2023-12-14T03:52:42;5.20;99.90
5647;DHT22;2845;48.626;9.362;2023-12-14T03:55:16;5.20;99.90
5647;DHT22;2845;48.626;9.362;2023-12-14T03:57:52;5.20;99.90
5647;DHT22;2845;48.626;9.362;2023-12-14T04:00:26;5.20;99.90
5647;DHT22;2845;48.626;9.362;2023-12-14T04:03:01;5.20;99.90
5647;DHT22;2845;48.626;9.362;2023-12-14T04:05:36;5.20;99.90
5647;DHT22;2845;48.626;9.362;2023-12-14T04:08:13;5.20;99.90
5647;DHT22;2845;48.626;9.362;2023-12-14T04:10:47;5.20;99.90
5647;DHT22;2845;48.626;9.362;2023-12-14T04:13:23;5.30;99.90
5647;DHT22;2845;48.626;9.362;2023-12-14T04:15:58;5.30;99.90
5647;DHT22;2845;48.626;9.362;2023-12-14T04:18:32;5.30;99.90
5647;DHT22;2845;48.626;9.362;2023-12-14T04:21:07;5.40;99.90
5647;DHT22;2845;48.626;9.362;2023-12-14T04:23:41;5.40;99.90
5647;DHT22;2845;48.626;9.362;2023-12-14T04:26:15;5.40;99.90
5647;DHT22;2845;48.626;9.362;2023-12-14T04:28:50;5.40;99.90
5647;DHT22;2845;48.626;9.362;2023-12-14T04:31:24;7.40;99.90
5647;DHT22;2845;48.626;9.362;2023-12-14T04:33:59;5.50;99.90
5647;DHT22;2845;48.626;9.362;2023-12-14T04:36:33;5.50;99.90
5647;DHT22;2845;48.626;9.362;2023-12-14T04:39:07;5.50;99.90
5647;DHT22;2845;48.626;9.362;2023-12-14T04:41:42;5.40;99.90
5647;DHT22;2845;48.626;9.362;2023-12-14T04:44:17;5.40;99.90
5647;DHT22;2845;48.626;9.362;2023-12-14T04:46:51;5.40;99.90
5647;DHT22;2845;48.626;9.362;2023-12-14T04:49:26;7.40;99.90
5647;DHT22;2845;48.626;9.362;2023-12-14T04:52:00;5.40;99.90
5647;DHT22;2845;48.626;9.362;2023-12-14T04:54:34;5.40;99.90
5647;DHT22;2845;48.626;9.362;2023-12-14T04:57:10;5.40;99.90
5647;DHT22;2845;48.626;9.362;2023-12-14T04:59:46;5.50;99.90
5647;DHT22;2845;48.626;9.362;2023-12-14T05:02:21;5.50;99.90
5647;DHT22;2845;48.626;9.362;2023-12-14T05:04:56;5.50;99.90
5647;DHT22;2845;48.626;9.362;2023-12-14T05:07:30;5.50;99.90
5647;DHT22;2845;48.626;9.362;2023-12-14T05:10:05;5.50;99.90
5647;DHT22;2845;48.626;9.362;2023-12-14T05:12:40;5.60;99.90
5647;DHT22;2845;48.626;9.362;2023-12-14T05:15:16;5.60;99.90
5647;DHT22;2845;48.626;9.362;2023-12-14T05:17:51;5.60;99.90
5647;DHT22;2845;48.626;9.362;2023-12-14T05:20:25;5.60;99.90
5647;DHT22;2845;48.626;9.362;2023-12-14T05:23:00;5.60;99.90
5647;DHT22;2845;48.626;9.362;2023-12-14T05:25:34;5.60;99.90
5647;DHT22;2845;48.626;9.362;2023-12-14T05:28:08;5.60;99.90
5647;DHT22;2845;48.626;9.362;2023-12-14T05:30:44;5.60;99.90
5647;DHT22;2845;48.626;9.362;2023-12-14T05:33:18;5.60;99.90
5647;DHT22;2845;48.626;9.362;2023-12-14T05:35:53;5.70;99.90
5647;DHT22;2845;48.626;9.362;2023-12-14T05:38:27;5.70;99.90
5647;DHT22;2845;48.626;9.362;2023-12-14T05:41:01;5.60;99.90
5647;DHT22;2845;48.626;9.362;2023-12-14T05:43:37;5.90;99.90
5647;DHT22;2845;48.626;9.362;2023-12-14T05:46:21;5.60;99.90
5647;DHT22;2845;48.626;9.362;2023-12-14T05:48:57;5.70;99.90
5647;DHT22;2845;48.626;9.362;2023-12-14T05:51:33;8.50;99.90
5647;DHT22;2845;48.626;9.362;2023-12-14T05:54:16;6.20;99.90
5647;DHT22;2845;48.626;9.362;2023-12-14T05:56:50;5.70;99.90
5647;DHT22;2845;48.626;9.362;2023-12-14T05:59:25;5.70;99.90
5647;DHT22;2845;48.626;9.362;2023-12-14T06:02:01;5.70;99.90
5647;DHT22;2845;48.626;9.362;2023-12-14T06:04:36;5.70;99.90
5647;DHT22;2845;48.626;9.362;2023-12-14T06:07:14;5.80;99.90
5647;DHT22;2845;48.626;9.362;2023-12-14T06:09:50;5.70;99.90
5647;DHT22;2845;48.626;9.362;2023-12-14T06:12:36;5.80;99.90
5647;DHT22;2845;48.626;9.362;2023-12-14T06:15:10;5.80;99.90
5647;DHT22;2845;48.626;9.362;2023-12-14T06:17:49;5.80;99.90
5647;DHT22;2845;48.626;9.362;2023-12-14T06:20:25;5.50;99.90
5647;DHT22;2845;48.626;9.362;2023-12-14T06:23:00;5.80;99.90
5647;DHT22;2845;48.626;9.362;2023-12-14T06:25:35;5.80;99.90
5647;DHT22;2845;48.626;9.362;2023-12-14T06:28:12;5.90;99.90
5647;DHT22;2845;48.626;9.362;2023-12-14T06:30:46;5.80;99.90
5647;DHT22;2845;48.626;9.362;2023-12-14T06:33:22;5.90;99.90
5647;DHT22;2845;48.626;9.362;2023-12-14T06:36:04;5.90;99.90
5647;DHT22;2845;48.626;9.362;2023-12-14T06:38:39;5.90;99.90
5647;DHT22;2845;48.626;9.362;2023-12-14T06:41:21;5.80;99.90
5647;DHT22;2845;48.626;9.362;2023-12-14T06:43:55;6.50;99.90
5647;DHT22;2845;48.626;9.362;2023-12-14T06:46:29;5.90;99.90
5647;DHT22;2845;48.626;9.362;2023-12-14T06:49:05;5.90;99.90
5647;DHT22;2845;48.626;9.362;2023-12-14T06:51:39;5.90;99.90
5647;DHT22;2845;48.626;9.362;2023-12-14T06:54:14;5.90;99.90
5647;DHT22;2845;48.626;9.362;2023-12-14T06:56:48;6.00;99.90
5647;DHT22;2845;48.626;9.362;2023-12-14T06:59:24;6.10;99.90
5647;DHT22;2845;48.626;9.362;2023-12-14T07:02:01;6.00;99.90
5647;DHT22;2845;48.626;9.362;2023-12-14T07:04:36;6.00;99.90
5647;DHT22;2845;48.626;9.362;2023-12-14T07:07:10;6.00;99.90
5647;DHT22;2845;48.626;9.362;2023-12-14T07:09:45;6.00;99.90
5647;DHT22;2845;48.626;9.362;2023-12-14T07:12:19;6.00;99.90
5647;DHT22;2845;48.626;9.362;2023-12-14T07:14:54;6.40;99.90
5647;DHT22;2845;48.626;9.362;2023-12-14T07:17:29;6.10;99.90
5647;DHT22;2845;48.626;9.362;2023-12-14T07:20:06;6.50;99.90
5647;DHT22;2845;48.626;9.362;2023-12-14T07:22:41;6.00;99.90
5647;DHT22;2845;48.626;9.362;2023-12-14T07:25:15;6.10;99.90
5647;DHT22;2845;48.626;9.362;2023-12-14T07:27:50;6.10;99.90
5647;DHT22;2845;48.626;9.362;2023-12-14T07:30:25;7.30;99.90
5647;DHT22;2845;48.626;9.362;2023-12-14T07:32:59;6.10;99.90
5647;DHT22;2845;48.626;9.362;2023-12-14T07:35:35;8.80;99.90
5647;DHT22;2845;48.626;9.362;2023-12-14T07:38:09;6.60;99.90
5647;DHT22;2845;48.626;9.362;2023-12-14T07:40:44;7.90;99.90
5647;DHT22;2845;48.626;9.362;2023-12-14T07:43:19;6.20;99.90
5647;DHT22;2845;48.626;9.362;2023-12-14T07:45:53;6.20;99.90
5647;DHT22;2845;48.626;9.362;2023-12-14T07:48:28;3.20;99.90
5647;DHT22;2845;48.626;9.362;2023-12-14T07:51:04;6.30;99.90
5647;DHT22;2845;48.626;9.362;2023-12-14T07:53:39;6.30;99.90
5647;DHT22;2845;48.626;9.362;2023-12-14T07:56:13;6.30;99.90
5647;DHT22;2845;48.626;9.362;2023-12-14T07:58:48;8.50;99.90
5647;DHT22;2845;48.626;9.362;2023-12-14T08:01:22;6.30;99.90
5647;DHT22;2845;48.626;9.362;2023-12-14T08:03:57;6.30;99.90
5647;DHT22;2845;48.626;9.362;2023-12-14T08:06:33;6.30;99.90
5647;DHT22;2845;48.626;9.362;2023-12-14T08:09:07;6.40;99.90
5647;DHT22;2845;48.626;9.362;2023-12-14T08:11:42;7.00;99.90
5647;DHT22;2845;48.626;9.362;2023-12-14T08:14:16;6.40;99.90
5647;DHT22;2845;48.626;9.362;2023-12-14T08:16:50;6.40;99.90
5647;DHT22;2845;48.626;9.362;2023-12-14T08:19:25;6.40;99.90
5647;DHT22;2845;48.626;9.362;2023-12-14T08:22:03;6.40;99.90
5647;DHT22;2845;48.626;9.362;2023-12-14T08:24:37;6.40;99.90
5647;DHT22;2845;48.626;9.362;2023-12-14T08:27:12;6.50;99.90
5647;DHT22;2845;48.626;9.362;2023-12-14T08:29:46;7.80;99.90
5647;DHT22;2845;48.626;9.362;2023-12-14T08:32:20;6.50;99.90
5647;DHT22;2845;48.626;9.362;2023-12-14T08:34:54;6.50;99.90
5647;DHT22;2845;48.626;9.362;2023-12-14T08:37:30;6.60;99.90
5647;DHT22;2845;48.626;9.362;2023-12-14T08:40:05;6.60;99.90
5647;DHT22;2845;48.626;9.362;2023-12-14T08:42:41;6.60;99.90
5647;DHT22;2845;48.626;9.362;2023-12-14T08:45:15;6.60;99.90
5647;DHT22;2845;48.626;9.362;2023-12-14T08:47:50;6.70;99.90
5647;DHT22;2845;48.626;9.362;2023-12-14T08:50:24;6.80;99.90
5647;DHT22;2845;48.626;9.362;2023-12-14T08:53:01;6.90;99.90
5647;DHT22;2845;48.626;9.362;2023-12-14T08:55:37;7.00;99.90
5647;DHT22;2845;48.626;9.362;2023-12-14T08:58:11;9.90;99.90
5647;DHT22;2845;48.626;9.362;2023-12-14T09:00:46;7.10;99.90
5647;DHT22;2845;48.626;9.362;2023-12-14T09:03:20;7.20;99.90
5647;DHT22;2845;48.626;9.362;2023-12-14T09:05:55;7.90;99.90
5647;DHT22;2845;48.626;9.362;2023-12-14T09:08:32;7.20;99.90
5647;DHT22;2845;48.626;9.362;2023-12-14T09:11:07;7.30;99.90
5647;DHT22;2845;48.626;9.362;2023-12-14T09:13:41;8.50;99.90
5647;DHT22;2845;48.626;9.362;2023-12-14T09:16:16;7.70;99.90
5647;DHT22;2845;48.626;9.362;2023-12-14T09:18:50;7.60;99.90
5647;DHT22;2845;48.626;9.362;2023-12-14T09:21:24;7.30;99.90
5647;DHT22;2845;48.626;9.362;2023-12-14T09:24:14;7.30;99.90
5647;DHT22;2845;48.626;9.362;2023-12-14T09:26:48;7.30;99.90
5647;DHT22;2845;48.626;9.362;2023-12-14T09:29:23;7.30;99.90
5647;DHT22;2845;48.626;9.362;2023-12-14T09:31:59;7.20;99.90
5647;DHT22;2845;48.626;9.362;2023-12-14T09:34:33;7.20;99.90
5647;DHT22;2845;48.626;9.362;2023-12-14T09:37:09;7.30;99.90
5647;DHT22;2845;48.626;9.362;2023-12-14T09:39:45;7.30;99.90
5647;DHT22;2845;48.626;9.362;2023-12-14T09:42:20;7.50;99.90
5647;DHT22;2845;48.626;9.362;2023-12-14T09:44:55;7.50;99.90
5647;DHT22;2845;48.626;9.362;2023-12-14T09:47:30;7.30;99.90
5647;DHT22;2845;48.626;9.362;2023-12-14T09:50:06;7.60;99.90
5647;DHT22;2845;48.626;9.362;2023-12-14T09:52:42;7.70;99.90
5647;DHT22;2845;48.626;9.362;2023-12-14T09:55:19;7.70;99.90
5647;DHT22;2845;48.626;9.362;2023-12-14T09:57:53;7.80;99.90
5647;DHT22;2845;48.626;9.362;2023-12-14T10:00:35;7.80;99.90
5647;DHT22;2845;48.626;9.362;2023-12-14T10:03:24;7.90;99.90
5647;DHT22;2845;48.626;9.362;2023-12-14T10:06:01;8.00;99.90
5647;DHT22;2845;48.626;9.362;2023-12-14T10:08:36;8.00;99.90
5647;DHT22;2845;48.626;9.362;2023-12-14T10:13:50;8.00;99.90
5647;DHT22;2845;48.626;9.362;2023-12-14T10:16:29;8.00;99.90
5647;DHT22;2845;48.626;9.362;2023-12-14T10:19:04;7.90;99.90
5647;DHT22;2845;48.626;9.362;2023-12-14T10:21:40;7.90;99.90
5647;DHT22;2845;48.626;9.362;2023-12-14T10:24:14;7.80;99.90
5647;DHT22;2845;48.626;9.362;2023-12-14T10:29:28;7.70;99.90
5647;DHT22;2845;48.626;9.362;2023-12-14T10:32:04;7.80;99.90
5647;DHT22;2845;48.626;9.362;2023-12-14T10:34:40;6.30;99.90
5647;DHT22;2845;48.626;9.362;2023-12-14T10:37:15;7.80;99.90
5647;DHT22;2845;48.626;9.362;2023-12-14T10:39:51;7.90;99.90
5647;DHT22;2845;48.626;9.362;2023-12-14T10:42:28;8.10;99.90
5647;DHT22;2845;48.626;9.362;2023-12-14T10:45:04;8.30;99.90
5647;DHT22;2845;48.626;9.362;2023-12-14T10:47:51;8.40;99.90
5647;DHT22;2845;48.626;9.362;2023-12-14T10:50:30;8.50;99.90
5647;DHT22;2845;48.626;9.362;2023-12-14T10:53:05;8.50;99.90
5647;DHT22;2845;48.626;9.362;2023-12-14T10:55:42;10.70;99.90
5647;DHT22;2845;48.626;9.362;2023-12-14T10:58:19;8.50;99.90
5647;DHT22;2845;48.626;9.362;2023-12-14T11:00:59;8.60;99.90
5647;DHT22;2845;48.626;9.362;2023-12-14T11:03:35;9.20;99.90
5647;DHT22;2845;48.626;9.362;2023-12-14T11:06:31;9.60;99.90
5647;DHT22;2845;48.626;9.362;2023-12-14T11:09:08;8.80;99.90
5647;DHT22;2845;48.626;9.362;2023-12-14T11:11:55;8.70;99.90
5647;DHT22;2845;48.626;9.362;2023-12-14T11:14:33;8.70;99.90
5647;DHT22;2845;48.626;9.362;2023-12-14T11:17:09;8.70;99.90
5647;DHT22;2845;48.626;9.362;2023-12-14T11:19:45;8.60;99.90
5647;DHT22;2845;48.626;9.362;2023-12-14T11:22:25;10.00;99.90
5647;DHT22;2845;48.626;9.362;2023-12-14T11:25:03;8.70;99.90
5647;DHT22;2845;48.626;9.362;2023-12-14T11:27:43;8.80;99.90
5647;DHT22;2845;48.626;9.362;2023-12-14T11:32:54;9.00;99.90
5647;DHT22;2845;48.626;9.362;2023-12-14T11:35:32;11.90;99.90
5647;DHT22;2845;48.626;9.362;2023-12-14T11:38:06;9.00;99.90
5647;DHT22;2845;48.626;9.362;2023-12-14T11:40:45;8.90;99.90
5647;DHT22;2845;48.626;9.362;2023-12-14T11:43:20;8.90;99.90
5647;DHT22;2845;48.626;9.362;2023-12-14T11:45:58;9.90;99.90
5647;DHT22;2845;48.626;9.362;2023-12-14T11:48:32;9.20;99.90
5647;DHT22;2845;48.626;9.362;2023-12-14T11:51:06;9.50;99.90
5647;DHT22;2845;48.626;9.362;2023-12-14T11:53:43;9.70;99.90
5647;DHT22;2845;48.626;9.362;2023-12-14T11:56:18;9.80;99.90
5647;DHT22;2845;48.626;9.362;2023-12-14T11:58:55;9.90;99.90
5647;DHT22;2845;48.626;9.362;2023-12-14T12:01:53;10.00;99.90
5647;DHT22;2845;48.626;9.362;2023-12-14T12:04:33;10.20;99.90
5647;DHT22;2845;48.626;9.362;2023-12-14T12:07:09;10.20;99.90
5647;DHT22;2845;48.626;9.362;2023-12-14T12:09:44;10.10;99.90
5647;DHT22;2845;48.626;9.362;2023-12-14T12:12:19;10.10;99.90
5647;DHT22;2845;48.626;9.362;2023-12-14T12:14:54;10.30;99.90
5647;DHT22;2845;48.626;9.362;2023-12-14T12:17:31;10.40;99.90
5647;DHT22;2845;48.626;9.362;2023-12-14T12:20:10;10.30;99.90
5647;DHT22;2845;48.626;9.362;2023-12-14T12:22:45;10.10;99.90
5647;DHT22;2845;48.626;9.362;2023-12-14T12:25:19;10.10;99.90
5647;DHT22;2845;48.626;9.362;2023-12-14T12:27:54;10.80;99.90
5647;DHT22;2845;48.626;9.362;2023-12-14T12:30:29;9.70;99.90
5647;DHT22;2845;48.626;9.362;2023-12-14T12:33:06;9.40;99.90
5647;DHT22;2845;48.626;9.362;2023-12-14T12:35:40;9.20;99.90
5647;DHT22;2845;48.626;9.362;2023-12-14T12:38:18;9.50;99.90
5647;DHT22;2845;48.626;9.362;2023-12-14T12:40:53;9.20;99.90
5647;DHT22;2845;48.626;9.362;2023-12-14T12:43:29;9.10;99.90
5647;DHT22;2845;48.626;9.362;2023-12-14T12:46:04;8.70;99.90
5647;DHT22;2845;48.626;9.362;2023-12-14T12:48:40;8.30;99.90
5647;DHT22;2845;48.626;9.362;2023-12-14T12:51:15;9.10;99.90
5647;DHT22;2845;48.626;9.362;2023-12-14T12:53:49;9.00;99.90
5647;DHT22;2845;48.626;9.362;2023-12-14T12:56:29;8.10;99.90
5647;DHT22;2845;48.626;9.362;2023-12-14T12:59:04;8.10;99.90
5647;DHT22;2845;48.626;9.362;2023-12-14T13:01:42;8.00;99.90
5647;DHT22;2845;48.626;9.362;2023-12-14T13:04:21;8.40;99.90
5647;DHT22;2845;48.626;9.362;2023-12-14T13:06:56;8.00;99.90
5647;DHT22;2845;48.626;9.362;2023-12-14T13:09:33;9.20;99.90
5647;DHT22;2845;48.626;9.362;2023-12-14T13:12:08;7.80;99.90
5647;DHT22;2845;48.626;9.362;2023-12-14T13:14:43;8.10;99.90
5647;DHT22;2845;48.626;9.362;2023-12-14T13:17:17;8.10;99.90
5647;DHT22;2845;48.626;9.362;2023-12-14T13:22:28;7.80;99.90
5647;DHT22;2845;48.626;9.362;2023-12-14T13:25:04;8.10;99.90
5647;DHT22;2845;48.626;9.362;2023-12-14T13:27:39;8.10;99.90
5647;DHT22;2845;48.626;9.362;2023-12-14T13:30:14;8.00;99.90
5647;DHT22;2845;48.626;9.362;2023-12-14T13:32:51;8.10;99.90
5647;DHT22;2845;48.626;9.362;2023-12-14T13:35:28;7.90;99.90
5647;DHT22;2845;48.626;9.362;2023-12-14T13:38:03;8.70;99.90
5647;DHT22;2845;48.626;9.362;2023-12-14T13:40:38;7.80;99.90
5647;DHT22;2845;48.626;9.362;2023-12-14T13:43:12;7.80;99.90
5647;DHT22;2845;48.626;9.362;2023-12-14T13:45:51;7.80;99.90
5647;DHT22;2845;48.626;9.362;2023-12-14T13:48:49;7.70;99.90
5647;DHT22;2845;48.626;9.362;2023-12-14T13:51:25;7.60;99.90
5647;DHT22;2845;48.626;9.362;2023-12-14T13:53:59;7.80;99.90
5647;DHT22;2845;48.626;9.362;2023-12-14T13:56:34;10.50;99.90
5647;DHT22;2845;48.626;9.362;2023-12-14T13:59:08;7.40;99.90
5647;DHT22;2845;48.626;9.362;2023-12-14T14:01:43;8.10;99.90
5647;DHT22;2845;48.626;9.362;2023-12-14T14:04:17;7.10;99.90
5647;DHT22;2845;48.626;9.362;2023-12-14T14:09:30;7.00;99.90
5647;DHT22;2845;48.626;9.362;2023-12-14T14:12:06;6.90;99.90
5647;DHT22;2845;48.626;9.362;2023-12-14T14:14:41;7.00;99.90
5647;DHT22;2845;48.626;9.362;2023-12-14T14:17:15;7.00;99.90
5647;DHT22;2845;48.626;9.362;2023-12-14T14:19:50;7.00;99.90
5647;DHT22;2845;48.626;9.362;2023-12-14T14:22:26;6.90;99.90
5647;DHT22;2845;48.626;9.362;2023-12-14T14:25:00;8.90;99.90
5647;DHT22;2845;48.626;9.362;2023-12-14T14:27:38;9.70;99.90
5647;DHT22;2845;48.626;9.362;2023-12-14T14:30:14;6.80;99.90
5647;DHT22;2845;48.626;9.362;2023-12-14T14:32:49;6.90;99.90
5647;DHT22;2845;48.626;9.362;2023-12-14T14:35:23;6.90;99.90
5647;DHT22;2845;48.626;9.362;2023-12-14T14:38:01;8.00;99.90
5647;DHT22;2845;48.626;9.362;2023-12-14T14:40:35;7.00;99.90
5647;DHT22;2845;48.626;9.362;2023-12-14T14:43:11;6.90;99.90
5647;DHT22;2845;48.626;9.362;2023-12-14T14:45:45;8.70;99.90
5647;DHT22;2845;48.626;9.362;2023-12-14T14:48:19;6.90;99.90
5647;DHT22;2845;48.626;9.362;2023-12-14T14:50:54;7.30;99.90
5647;DHT22;2845;48.626;9.362;2023-12-14T14:56:05;6.80;99.90
5647;DHT22;2845;48.626;9.362;2023-12-14T14:58:40;6.80;99.90
5647;DHT22;2845;48.626;9.362;2023-12-14T15:01:18;6.80;99.90
5647;DHT22;2845;48.626;9.362;2023-12-14T15:03:53;6.80;99.90
5647;DHT22;2845;48.626;9.362;2023-12-14T15:06:27;8.30;99.90
5647;DHT22;2845;48.626;9.362;2023-12-14T15:09:04;6.90;99.90
5647;DHT22;2845;48.626;9.362;2023-12-14T15:11:42;6.80;99.90
5647;DHT22;2845;48.626;9.362;2023-12-14T15:14:16;6.80;99.90
5647;DHT22;2845;48.626;9.362;2023-12-14T15:16:50;6.80;99.90
5647;DHT22;2845;48.626;9.362;2023-12-14T15:19:25;6.70;99.90
5647;DHT22;2845;48.626;9.362;2023-12-14T15:22:00;6.80;99.90
5647;DHT22;2845;48.626;9.362;2023-12-14T15:27:13;6.90;99.90
5647;DHT22;2845;48.626;9.362;2023-12-14T15:29:48;5.50;99.90
5647;DHT22;2845;48.626;9.362;2023-12-14T15:32:23;6.80;99.90
5647;DHT22;2845;48.626;9.362;2023-12-14T15:34:57;6.80;99.90
5647;DHT22;2845;48.626;9.362;2023-12-14T15:37:32;5.50;99.90
5647;DHT22;2845;48.626;9.362;2023-12-14T15:40:08;6.80;99.90
5647;DHT22;2845;48.626;9.362;2023-12-14T15:42:43;6.80;99.90
5647;DHT22;2845;48.626;9.362;2023-12-14T15:45:18;6.80;99.90
5647;DHT22;2845;48.626;9.362;2023-12-14T15:47:53;6.80;99.90
5647;DHT22;2845;48.626;9.362;2023-12-14T15:50:28;6.70;99.90
5647;DHT22;2845;48.626;9.362;2023-12-14T15:53:03;6.70;99.90
5647;DHT22;2845;48.626;9.362;2023-12-14T15:55:39;10.20;99.90
5647;DHT22;2845;48.626;9.362;2023-12-14T15:58:14;6.90;99.90
5647;DHT22;2845;48.626;9.362;2023-12-14T16:00:48;6.80;99.90
5647;DHT22;2845;48.626;9.362;2023-12-14T16:03:23;6.80;99.90
5647;DHT22;2845;48.626;9.362;2023-12-14T16:05:58;6.80;99.90
5647;DHT22;2845;48.626;9.362;2023-12-14T16:08:32;6.80;99.90
5647;DHT22;2845;48.626;9.362;2023-12-14T16:13:43;6.80;99.90
5647;DHT22;2845;48.626;9.362;2023-12-14T16:16:21;9.20;99.90
5647;DHT22;2845;48.626;9.362;2023-12-14T16:18:55;6.80;99.90
5647;DHT22;2845;48.626;9.362;2023-12-14T16:21:30;6.70;99.90
5647;DHT22;2845;48.626;9.362;2023-12-14T16:24:05;6.80;99.90
5647;DHT22;2845;48.626;9.362;2023-12-14T16:29:23;6.80;99.90
5647;DHT22;2845;48.626;9.362;2023-12-14T16:31:58;3.40;99.90
5647;DHT22;2845;48.626;9.362;2023-12-14T16:34:34;6.80;99.90
5647;DHT22;2845;48.626;9.362;2023-12-14T16:37:10;6.80;99.90
5647;DHT22;2845;48.626;9.362;2023-12-14T16:39:44;9.80;99.90
5647;DHT22;2845;48.626;9.362;2023-12-14T16:42:20;7.50;99.90
5647;DHT22;2845;48.626;9.362;2023-12-14T16:44:57;6.70;99.90
5647;DHT22;2845;48.626;9.362;2023-12-14T16:47:31;6.70;99.90
5647;DHT22;2845;48.626;9.362;2023-12-14T16:50:07;6.60;99.90
5647;DHT22;2845;48.626;9.362;2023-12-14T16:52:42;6.60;99.90
5647;DHT22;2845;48.626;9.362;2023-12-14T16:55:16;7.40;99.90
5647;DHT22;2845;48.626;9.362;2023-12-14T16:57:51;8.40;99.90
5647;DHT22;2845;48.626;9.362;2023-12-14T17:00:26;7.40;99.90
5647;DHT22;2845;48.626;9.362;2023-12-14T17:03:00;6.50;99.90
5647;DHT22;2845;48.626;9.362;2023-12-14T17:05:35;6.60;99.90
5647;DHT22;2845;48.626;9.362;2023-12-14T17:08:12;6.60;99.90
5647;DHT22;2845;48.626;9.362;2023-12-14T17:10:46;6.60;99.90
5647;DHT22;2845;48.626;9.362;2023-12-14T17:15:57;6.60;99.90
5647;DHT22;2845;48.626;9.362;2023-12-14T17:18:32;6.60;99.90
5647;DHT22;2845;48.626;9.362;2023-12-14T17:21:16;8.70;99.90
5647;DHT22;2845;48.626;9.362;2023-12-14T17:23:51;6.60;99.90
5647;DHT22;2845;48.626;9.362;2023-12-14T17:26:26;6.60;99.90
5647;DHT22;2845;48.626;9.362;2023-12-14T17:29:02;6.60;99.90
5647;DHT22;2845;48.626;9.362;2023-12-14T17:31:39;6.60;99.90
5647;DHT22;2845;48.626;9.362;2023-12-14T17:34:13;6.60;99.90
5647;DHT22;2845;48.626;9.362;2023-12-14T17:36:47;6.60;99.90
5647;DHT22;2845;48.626;9.362;2023-12-14T17:39:23;6.60;99.90